sensor_id;sensor_type;location;lat;lon;timestamp;pressure;altitude;pressure_sealevel;temperature;humidity
56894;BME280;43392;50.078;13.704;2023-05-14T00:00:44;97248.81;;;9.58;83.30
56894;BME280;43392;50.078;13.704;2023-05-14T00:03:11;97256.56;;;9.60;83.05
56894;BME280;43392;50.078;13.704;2023-05-14T00:05:38;97250.66;;;9.58;83.27
56894;BME280;43392;50.078;13.704;2023-05-14T00:08:06;97247.19;;;9.57;83.23
56894;BME280;43392;50.078;13.704;2023-05-14T00:10:32;97247.16;;;9.52;83.13
56894;BME280;43392;50.078;13.704;2023-05-14T00:12:59;97246.34;;;9.47;83.00
56894;BME280;43392;50.078;13.704;2023-05-14T00:15:26;97247.91;;;9.43;82.92
56894;BME280;43392;50.078;13.704;2023-05-14T00:17:52;97240.13;;;9.36;82.84
56894;BME280;43392;50.078;13.704;2023-05-14T00:20:19;97234.75;;;9.31;82.67
56894;BME280;43392;50.078;13.704;2023-05-14T00:22:45;97235.81;;;9.25;82.34
56894;BME280;43392;50.078;13.704;2023-05-14T00:25:13;97229.63;;;9.19;82.62
56894;BME280;43392;50.078;13.704;2023-05-14T00:27:40;97233.88;;;9.15;82.57
56894;BME280;43392;50.078;13.704;2023-05-14T00:30:07;97234.13;;;9.14;83.21
56894;BME280;43392;50.078;13.704;2023-05-14T00:32:33;97232.25;;;9.14;83.41
56894;BME280;43392;50.078;13.704;2023-05-14T00:35:00;97234.94;;;9.14;83.58
56894;BME280;43392;50.078;13.704;2023-05-14T00:37:28;97223.94;;;9.06;83.76
56894;BME280;43392;50.078;13.704;2023-05-14T00:39:55;97228.22;;;9.12;83.97
56894;BME280;43392;50.078;13.704;2023-05-14T00:42:23;97225.25;;;9.08;83.78
56894;BME280;43392;50.078;13.704;2023-05-14T00:44:50;97220.69;;;9.04;83.78
56894;BME280;43392;50.078;13.704;2023-05-14T00:47:17;97219.34;;;9.01;83.60
56894;BME280;43392;50.078;13.704;2023-05-14T00:49:44;97225.78;;;9.00;83.52
56894;BME280;43392;50.078;13.704;2023-05-14T00:52:11;97225.78;;;9.00;83.86
56894;BME280;43392;50.078;13.704;2023-05-14T00:54:38;97216.38;;;8.98;83.18
56894;BME280;43392;50.078;13.704;2023-05-14T00:57:05;97227.28;;;8.86;82.70
56894;BME280;43392;50.078;13.704;2023-05-14T00:59:33;97222.66;;;8.72;82.78
56894;BME280;43392;50.078;13.704;2023-05-14T01:02:00;97223.91;;;8.64;83.33
56894;BME280;43392;50.078;13.704;2023-05-14T01:04:27;97227.66;;;8.63;83.04
56894;BME280;43392;50.078;13.704;2023-05-14T01:07:01;97224.69;;;8.59;83.36
56894;BME280;43392;50.078;13.704;2023-05-14T01:09:41;97227.38;;;8.59;83.65
56894;BME280;43392;50.078;13.704;2023-05-14T01:12:16;97224.69;;;8.59;83.63
56894;BME280;43392;50.078;13.704;2023-05-14T01:14:52;97223.38;;;8.62;83.71
56894;BME280;43392;50.078;13.704;2023-05-14T01:17:21;97229.00;;;8.65;83.92
56894;BME280;43392;50.078;13.704;2023-05-14T01:19:48;97226.09;;;8.72;84.45
56894;BME280;43392;50.078;13.704;2023-05-14T01:22:17;97228.81;;;8.77;84.48
56894;BME280;43392;50.078;13.704;2023-05-14T01:24:44;97225.13;;;8.83;84.48
56894;BME280;43392;50.078;13.704;2023-05-14T01:27:15;97224.06;;;8.89;84.09
56894;BME280;43392;50.078;13.704;2023-05-14T01:29:48;97231.84;;;8.91;83.66
56894;BME280;43392;50.078;13.704;2023-05-14T01:32:16;97219.50;;;8.85;83.96
56894;BME280;43392;50.078;13.704;2023-05-14T01:34:46;97223.50;;;8.82;83.81
56894;BME280;43392;50.078;13.704;2023-05-14T01:37:14;97221.38;;;8.79;83.49
56894;BME280;43392;50.078;13.704;2023-05-14T01:39:43;97220.78;;;8.77;83.40
56894;BME280;43392;50.078;13.704;2023-05-14T01:42:10;97225.91;;;8.79;83.66
56894;BME280;43392;50.078;13.704;2023-05-14T01:44:38;97222.69;;;8.82;83.65
56894;BME280;43392;50.078;13.704;2023-05-14T01:47:04;97228.06;;;8.87;83.64
56894;BME280;43392;50.078;13.704;2023-05-14T01:49:31;97218.72;;;8.89;83.66
56894;BME280;43392;50.078;13.704;2023-05-14T01:51:57;97216.63;;;8.91;84.12
56894;BME280;43392;50.078;13.704;2023-05-14T01:54:24;97215.00;;;8.90;84.34
56894;BME280;43392;50.078;13.704;2023-05-14T01:56:52;97218.75;;;8.94;84.69
56894;BME280;43392;50.078;13.704;2023-05-14T01:59:19;97216.09;;;8.94;84.63
56894;BME280;43392;50.078;13.704;2023-05-14T02:01:45;97204.56;;;8.94;84.68
56894;BME280;43392;50.078;13.704;2023-05-14T02:04:12;97206.97;;;8.90;84.69
56894;BME280;43392;50.078;13.704;2023-05-14T02:06:38;97203.19;;;8.81;85.21
56894;BME280;43392;50.078;13.704;2023-05-14T02:09:05;97201.75;;;8.68;85.61
56894;BME280;43392;50.078;13.704;2023-05-14T02:11:32;97199.56;;;8.60;85.93
56894;BME280;43392;50.078;13.704;2023-05-14T02:13:59;97196.84;;;8.55;86.09
56894;BME280;43392;50.078;13.704;2023-05-14T02:16:26;97197.13;;;8.54;86.44
56894;BME280;43392;50.078;13.704;2023-05-14T02:18:53;97193.38;;;8.55;86.66
56894;BME280;43392;50.078;13.704;2023-05-14T02:21:19;97192.31;;;8.56;86.61
56894;BME280;43392;50.078;13.704;2023-05-14T02:23:46;97190.41;;;8.51;86.65
56894;BME280;43392;50.078;13.704;2023-05-14T02:26:13;97192.78;;;8.48;86.50
56894;BME280;43392;50.078;13.704;2023-05-14T02:28:40;97186.94;;;8.51;86.64
56894;BME280;43392;50.078;13.704;2023-05-14T02:31:08;97189.91;;;8.54;86.33
56894;BME280;43392;50.078;13.704;2023-05-14T02:33:34;97187.47;;;8.53;86.17
56894;BME280;43392;50.078;13.704;2023-05-14T02:36:01;97184.81;;;8.53;86.17
56894;BME280;43392;50.078;13.704;2023-05-14T02:38:27;97196.56;;;8.52;86.48
56894;BME280;43392;50.078;13.704;2023-05-14T02:40:54;97187.19;;;8.49;86.51
56894;BME280;43392;50.078;13.704;2023-05-14T02:43:21;97181.53;;;8.46;86.63
56894;BME280;43392;50.078;13.704;2023-05-14T02:45:47;97182.84;;;8.43;87.09
56894;BME280;43392;50.078;13.704;2023-05-14T02:48:15;97179.13;;;8.44;86.99
56894;BME280;43392;50.078;13.704;2023-05-14T02:50:42;97191.72;;;8.49;87.16
56894;BME280;43392;50.078;13.704;2023-05-14T02:53:08;97186.97;;;8.56;87.02
56894;BME280;43392;50.078;13.704;2023-05-14T02:55:35;97178.72;;;8.62;87.14
56894;BME280;43392;50.078;13.704;2023-05-14T02:58:02;97179.59;;;8.73;87.11
56894;BME280;43392;50.078;13.704;2023-05-14T03:00:28;97175.09;;;8.79;86.68
56894;BME280;43392;50.078;13.704;2023-05-14T03:02:55;97178.59;;;8.79;86.67
56894;BME280;43392;50.078;13.704;2023-05-14T03:05:23;97175.59;;;8.76;87.17
56894;BME280;43392;50.078;13.704;2023-05-14T03:07:50;97178.81;;;8.78;87.20
56894;BME280;43392;50.078;13.704;2023-05-14T03:10:17;97176.44;;;8.81;87.00
56894;BME280;43392;50.078;13.704;2023-05-14T03:12:44;97174.84;;;8.85;86.64
56894;BME280;43392;50.078;13.704;2023-05-14T03:15:11;97179.69;;;8.88;86.72
56894;BME280;43392;50.078;13.704;2023-05-14T03:17:38;97173.84;;;8.91;87.00
56894;BME280;43392;50.078;13.704;2023-05-14T03:20:05;97177.06;;;8.93;87.03
56894;BME280;43392;50.078;13.704;2023-05-14T03:22:33;97183.19;;;8.94;87.38
56894;BME280;43392;50.078;13.704;2023-05-14T03:25:00;97180.28;;;8.95;87.54
56894;BME280;43392;50.078;13.704;2023-05-14T03:27:27;97174.09;;;8.95;87.39
56894;BME280;43392;50.078;13.704;2023-05-14T03:29:53;97182.16;;;9.00;87.40
56894;BME280;43392;50.078;13.704;2023-05-14T03:32:20;97170.94;;;9.03;87.42
56894;BME280;43392;50.078;13.704;2023-05-14T03:34:46;97173.66;;;9.08;87.60
56894;BME280;43392;50.078;13.704;2023-05-14T03:37:13;97166.41;;;9.08;86.96
56894;BME280;43392;50.078;13.704;2023-05-14T03:39:41;97170.69;;;9.04;87.12
56894;BME280;43392;50.078;13.704;2023-05-14T03:42:07;97163.44;;;9.00;87.16
56894;BME280;43392;50.078;13.704;2023-05-14T03:44:34;97166.91;;;8.95;87.44
56894;BME280;43392;50.078;13.704;2023-05-14T03:47:01;97180.50;;;8.89;87.65
56894;BME280;43392;50.078;13.704;2023-05-14T03:49:27;97171.69;;;8.88;87.92
56894;BME280;43392;50.078;13.704;2023-05-14T03:51:54;97170.31;;;8.86;88.03
56894;BME280;43392;50.078;13.704;2023-05-14T03:54:21;97167.03;;;8.74;88.91
56894;BME280;43392;50.078;13.704;2023-05-14T03:56:49;97167.50;;;8.65;89.48
56894;BME280;43392;50.078;13.704;2023-05-14T03:59:16;97176.38;;;8.71;89.36
56894;BME280;43392;50.078;13.704;2023-05-14T04:01:43;97173.13;;;8.64;89.18
56894;BME280;43392;50.078;13.704;2023-05-14T04:04:09;97171.50;;;8.63;89.23
56894;BME280;43392;50.078;13.704;2023-05-14T04:06:36;97161.03;;;8.56;89.29
56894;BME280;43392;50.078;13.704;2023-05-14T04:09:03;97162.38;;;8.54;89.05
56894;BME280;43392;50.078;13.704;2023-05-14T04:11:29;97164.22;;;8.53;89.54
56894;BME280;43392;50.078;13.704;2023-05-14T04:13:57;97169.34;;;8.60;89.51
56894;BME280;43392;50.078;13.704;2023-05-14T04:16:24;97173.38;;;8.62;89.47
56894;BME280;43392;50.078;13.704;2023-05-14T04:18:50;97165.38;;;8.67;89.56
56894;BME280;43392;50.078;13.704;2023-05-14T04:21:17;97166.72;;;8.65;89.45
56894;BME280;43392;50.078;13.704;2023-05-14T04:23:43;97170.16;;;8.60;89.50
56894;BME280;43392;50.078;13.704;2023-05-14T04:26:10;97169.66;;;8.63;89.75
56894;BME280;43392;50.078;13.704;2023-05-14T04:28:36;97156.59;;;8.67;89.45
56894;BME280;43392;50.078;13.704;2023-05-14T04:31:04;97159.00;;;8.68;89.83
56894;BME280;43392;50.078;13.704;2023-05-14T04:33:31;97160.59;;;8.69;89.80
56894;BME280;43392;50.078;13.704;2023-05-14T04:35:58;97164.91;;;8.76;89.71
56894;BME280;43392;50.078;13.704;2023-05-14T04:38:25;97155.09;;;8.86;89.07
56894;BME280;43392;50.078;13.704;2023-05-14T04:40:52;97160.47;;;8.96;88.69
56894;BME280;43392;50.078;13.704;2023-05-14T04:43:18;97149.28;;;9.04;88.48
56894;BME280;43392;50.078;13.704;2023-05-14T04:45:45;97161.06;;;9.08;88.12
56894;BME280;43392;50.078;13.704;2023-05-14T04:48:13;97150.94;;;9.15;88.10
56894;BME280;43392;50.078;13.704;2023-05-14T04:50:40;97148.84;;;9.22;87.81
56894;BME280;43392;50.078;13.704;2023-05-14T04:53:06;97156.34;;;9.30;87.46
56894;BME280;43392;50.078;13.704;2023-05-14T04:55:33;97151.00;;;9.30;87.35
56894;BME280;43392;50.078;13.704;2023-05-14T04:58:00;97165.44;;;9.24;87.52
56894;BME280;43392;50.078;13.704;2023-05-14T05:00:27;97157.38;;;9.19;88.31
56894;BME280;43392;50.078;13.704;2023-05-14T05:02:53;97159.25;;;9.19;88.36
56894;BME280;43392;50.078;13.704;2023-05-14T05:05:22;97160.31;;;9.18;88.82
56894;BME280;43392;50.078;13.704;2023-05-14T05:07:49;97162.19;;;9.17;88.64
56894;BME280;43392;50.078;13.704;2023-05-14T05:10:15;97157.38;;;9.19;89.21
56894;BME280;43392;50.078;13.704;2023-05-14T05:12:42;97163.56;;;9.25;89.05
56894;BME280;43392;50.078;13.704;2023-05-14T05:15:09;97162.22;;;9.32;89.24
56894;BME280;43392;50.078;13.704;2023-05-14T05:17:36;97158.03;;;9.47;88.96
56894;BME280;43392;50.078;13.704;2023-05-14T05:20:03;97156.78;;;10.05;91.77
56894;BME280;43392;50.078;13.704;2023-05-14T05:22:34;97146.88;;;10.65;87.35
56894;BME280;43392;50.078;13.704;2023-05-14T05:25:00;97142.97;;;11.17;84.92
56894;BME280;43392;50.078;13.704;2023-05-14T05:27:29;97145.59;;;11.32;82.65
56894;BME280;43392;50.078;13.704;2023-05-14T05:29:56;97142.34;;;11.94;81.47
56894;BME280;43392;50.078;13.704;2023-05-14T05:32:22;97135.91;;;12.24;78.18
56894;BME280;43392;50.078;13.704;2023-05-14T05:34:49;97139.03;;;12.02;77.76
56894;BME280;43392;50.078;13.704;2023-05-14T05:37:16;97133.69;;;12.31;78.20
56894;BME280;43392;50.078;13.704;2023-05-14T05:39:44;97136.66;;;12.63;76.96
56894;BME280;43392;50.078;13.704;2023-05-14T05:42:12;97140.44;;;13.14;75.22
56894;BME280;43392;50.078;13.704;2023-05-14T05:44:39;97144.91;;;13.66;73.54
56894;BME280;43392;50.078;13.704;2023-05-14T05:47:06;97144.47;;;13.96;71.14
56894;BME280;43392;50.078;13.704;2023-05-14T05:49:32;97140.72;;;14.30;69.95
56894;BME280;43392;50.078;13.704;2023-05-14T05:52:01;97140.84;;;14.57;70.03
56894;BME280;43392;50.078;13.704;2023-05-14T05:54:29;97148.53;;;14.63;68.68
56894;BME280;43392;50.078;13.704;2023-05-14T05:56:57;97140.13;;;14.51;68.83
56894;BME280;43392;50.078;13.704;2023-05-14T05:59:24;97146.19;;;14.25;68.64
56894;BME280;43392;50.078;13.704;2023-05-14T06:01:51;97143.38;;;13.60;69.82
56894;BME280;43392;50.078;13.704;2023-05-14T06:04:17;97141.91;;;13.25;72.35
56894;BME280;43392;50.078;13.704;2023-05-14T06:06:44;97148.69;;;13.84;71.75
56894;BME280;43392;50.078;13.704;2023-05-14T06:09:11;97141.25;;;14.32;69.09
56894;BME280;43392;50.078;13.704;2023-05-14T06:11:37;97143.38;;;14.81;67.25
56894;BME280;43392;50.078;13.704;2023-05-14T06:14:05;97136.34;;;15.25;65.80
56894;BME280;43392;50.078;13.704;2023-05-14T06:16:32;97143.94;;;15.64;64.40
56894;BME280;43392;50.078;13.704;2023-05-14T06:18:58;97138.38;;;15.83;64.49
56894;BME280;43392;50.078;13.704;2023-05-14T06:21:25;97139.56;;;15.90;63.91
56894;BME280;43392;50.078;13.704;2023-05-14T06:23:52;97132.31;;;16.00;63.89
56894;BME280;43392;50.078;13.704;2023-05-14T06:26:18;97122.69;;;16.07;62.87
56894;BME280;43392;50.078;13.704;2023-05-14T06:28:45;97137.94;;;16.03;63.08
56894;BME280;43392;50.078;13.704;2023-05-14T06:31:13;97136.28;;;15.80;63.96
56894;BME280;43392;50.078;13.704;2023-05-14T06:33:39;97138.16;;;15.57;65.04
56894;BME280;43392;50.078;13.704;2023-05-14T06:36:07;97133.13;;;15.64;65.18
56894;BME280;43392;50.078;13.704;2023-05-14T06:38:33;97138.69;;;15.81;63.96
56894;BME280;43392;50.078;13.704;2023-05-14T06:41:00;97134.66;;;15.92;62.91
56894;BME280;43392;50.078;13.704;2023-05-14T06:43:27;97125.63;;;15.97;63.26
56894;BME280;43392;50.078;13.704;2023-05-14T06:45:53;97135.03;;;16.00;63.15
56894;BME280;43392;50.078;13.704;2023-05-14T06:48:21;97134.09;;;16.04;63.75
56894;BME280;43392;50.078;13.704;2023-05-14T06:50:48;97144.66;;;16.06;63.88
56894;BME280;43392;50.078;13.704;2023-05-14T06:53:15;97141.03;;;16.10;64.24
56894;BME280;43392;50.078;13.704;2023-05-14T06:55:42;97140.69;;;16.12;63.90
56894;BME280;43392;50.078;13.704;2023-05-14T06:58:09;97140.81;;;16.07;64.78
56894;BME280;43392;50.078;13.704;2023-05-14T07:00:35;97144.06;;;15.95;65.24
56894;BME280;43392;50.078;13.704;2023-05-14T07:03:02;97140.13;;;16.01;65.78
56894;BME280;43392;50.078;13.704;2023-05-14T07:05:30;97129.63;;;16.00;64.99
56894;BME280;43392;50.078;13.704;2023-05-14T07:07:57;97148.22;;;15.79;64.96
56894;BME280;43392;50.078;13.704;2023-05-14T07:10:23;97145.19;;;15.80;65.91
56894;BME280;43392;50.078;13.704;2023-05-14T07:12:50;97135.94;;;15.95;65.62
56894;BME280;43392;50.078;13.704;2023-05-14T07:15:17;97143.03;;;16.05;65.50
56894;BME280;43392;50.078;13.704;2023-05-14T07:17:43;97137.00;;;16.08;65.90
56894;BME280;43392;50.078;13.704;2023-05-14T07:20:11;97126.56;;;16.15;64.86
56894;BME280;43392;50.078;13.704;2023-05-14T07:22:39;97123.03;;;15.92;64.56
56894;BME280;43392;50.078;13.704;2023-05-14T07:25:06;97134.44;;;15.89;65.47
56894;BME280;43392;50.078;13.704;2023-05-14T07:27:33;97121.44;;;15.91;65.60
56894;BME280;43392;50.078;13.704;2023-05-14T07:29:59;97114.38;;;16.04;66.27
56894;BME280;43392;50.078;13.704;2023-05-14T07:32:26;97111.78;;;16.21;64.18
56894;BME280;43392;50.078;13.704;2023-05-14T07:34:52;97118.34;;;16.20;63.77
56894;BME280;43392;50.078;13.704;2023-05-14T07:37:19;97111.19;;;16.24;64.13
56894;BME280;43392;50.078;13.704;2023-05-14T07:39:48;97113.22;;;16.40;63.21
56894;BME280;43392;50.078;13.704;2023-05-14T07:42:14;97103.69;;;16.43;62.52
56894;BME280;43392;50.078;13.704;2023-05-14T07:44:41;97097.84;;;16.27;62.25
56894;BME280;43392;50.078;13.704;2023-05-14T07:47:07;97105.50;;;15.89;62.72
56894;BME280;43392;50.078;13.704;2023-05-14T07:49:35;97110.50;;;15.60;63.19
56894;BME280;43392;50.078;13.704;2023-05-14T07:52:01;97103.72;;;15.49;63.51
56894;BME280;43392;50.078;13.704;2023-05-14T07:54:28;97101.69;;;15.41;62.87
56894;BME280;43392;50.078;13.704;2023-05-14T07:56:56;97102.41;;;15.33;63.11
56894;BME280;43392;50.078;13.704;2023-05-14T07:59:22;97107.13;;;15.27;63.92
56894;BME280;43392;50.078;13.704;2023-05-14T08:01:50;97108.63;;;15.20;63.85
56894;BME280;43392;50.078;13.704;2023-05-14T08:04:16;97108.22;;;15.13;64.17
56894;BME280;43392;50.078;13.704;2023-05-14T08:06:43;97105.63;;;15.08;64.03
56894;BME280;43392;50.078;13.704;2023-05-14T08:09:10;97102.09;;;15.07;64.32
56894;BME280;43392;50.078;13.704;2023-05-14T08:11:36;97106.69;;;15.07;63.81
56894;BME280;43392;50.078;13.704;2023-05-14T08:14:04;97101.13;;;15.03;63.88
56894;BME280;43392;50.078;13.704;2023-05-14T08:16:31;97108.19;;;14.99;63.80
56894;BME280;43392;50.078;13.704;2023-05-14T08:18:57;97099.31;;;14.99;64.93
56894;BME280;43392;50.078;13.704;2023-05-14T08:21:24;97093.13;;;14.98;64.72
56894;BME280;43392;50.078;13.704;2023-05-14T08:23:52;97086.31;;;15.01;64.07
56894;BME280;43392;50.078;13.704;2023-05-14T08:26:18;97082.19;;;15.17;64.27
56894;BME280;43392;50.078;13.704;2023-05-14T08:28:46;97075.69;;;15.32;64.30
56894;BME280;43392;50.078;13.704;2023-05-14T08:31:14;97081.88;;;15.46;64.08
56894;BME280;43392;50.078;13.704;2023-05-14T08:33:40;97072.03;;;15.63;62.66
56894;BME280;43392;50.078;13.704;2023-05-14T08:36:07;97072.69;;;15.82;62.56
56894;BME280;43392;50.078;13.704;2023-05-14T08:38:34;97074.19;;;15.88;62.02
56894;BME280;43392;50.078;13.704;2023-05-14T08:41:00;97070.34;;;15.89;62.16
56894;BME280;43392;50.078;13.704;2023-05-14T08:43:34;97075.03;;;15.98;61.65
56894;BME280;43392;50.078;13.704;2023-05-14T08:46:04;97075.34;;;15.96;61.35
56894;BME280;43392;50.078;13.704;2023-05-14T08:48:33;97069.13;;;15.96;60.28
56894;BME280;43392;50.078;13.704;2023-05-14T08:51:00;97066.91;;;15.98;60.05
56894;BME280;43392;50.078;13.704;2023-05-14T08:53:27;97064.47;;;16.10;59.69
56894;BME280;43392;50.078;13.704;2023-05-14T08:55:54;97056.59;;;16.22;59.44
56894;BME280;43392;50.078;13.704;2023-05-14T08:58:21;97062.69;;;16.27;58.83
56894;BME280;43392;50.078;13.704;2023-05-14T09:00:47;97058.44;;;16.35;58.51
56894;BME280;43392;50.078;13.704;2023-05-14T09:03:14;97056.25;;;16.45;59.65
56894;BME280;43392;50.078;13.704;2023-05-14T09:05:43;97057.53;;;16.48;59.09
56894;BME280;43392;50.078;13.704;2023-05-14T09:08:11;97053.19;;;16.38;58.62
56894;BME280;43392;50.078;13.704;2023-05-14T09:10:37;97050.22;;;16.18;59.27
56894;BME280;43392;50.078;13.704;2023-05-14T09:13:04;97043.88;;;16.00;59.73
56894;BME280;43392;50.078;13.704;2023-05-14T09:15:32;97042.50;;;15.89;60.87
56894;BME280;43392;50.078;13.704;2023-05-14T09:18:00;97051.13;;;15.91;61.29
56894;BME280;43392;50.078;13.704;2023-05-14T09:20:26;97043.31;;;15.89;60.43
56894;BME280;43392;50.078;13.704;2023-05-14T09:22:55;97040.94;;;15.74;60.68
56894;BME280;43392;50.078;13.704;2023-05-14T09:25:25;97042.19;;;15.68;61.40
56894;BME280;43392;50.078;13.704;2023-05-14T09:27:52;97036.28;;;15.66;61.38
56894;BME280;43392;50.078;13.704;2023-05-14T09:30:19;97031.75;;;15.75;61.48
56894;BME280;43392;50.078;13.704;2023-05-14T09:32:46;97030.28;;;15.91;62.50
56894;BME280;43392;50.078;13.704;2023-05-14T09:35:16;97029.09;;;16.28;61.91
56894;BME280;43392;50.078;13.704;2023-05-14T09:37:44;97021.38;;;16.75;60.84
56894;BME280;43392;50.078;13.704;2023-05-14T09:40:14;97021.50;;;17.17;59.46
56894;BME280;43392;50.078;13.704;2023-05-14T09:42:40;97018.88;;;17.52;57.97
56894;BME280;43392;50.078;13.704;2023-05-14T09:45:08;97020.94;;;17.63;57.25
56894;BME280;43392;50.078;13.704;2023-05-14T09:47:35;97003.88;;;17.54;57.58
56894;BME280;43392;50.078;13.704;2023-05-14T09:50:02;97012.34;;;17.78;57.63
56894;BME280;43392;50.078;13.704;2023-05-14T09:52:28;97005.31;;;17.95;56.76
56894;BME280;43392;50.078;13.704;2023-05-14T09:54:55;97002.25;;;18.13;56.29
56894;BME280;43392;50.078;13.704;2023-05-14T09:57:23;96996.78;;;18.30;54.48
56894;BME280;43392;50.078;13.704;2023-05-14T09:59:51;96988.84;;;18.63;54.83
56894;BME280;43392;50.078;13.704;2023-05-14T10:02:21;96996.44;;;18.87;54.05
56894;BME280;43392;50.078;13.704;2023-05-14T10:04:49;96984.13;;;18.51;53.49
56894;BME280;43392;50.078;13.704;2023-05-14T10:07:20;96985.16;;;18.21;53.18
56894;BME280;43392;50.078;13.704;2023-05-14T10:09:47;96986.81;;;17.54;54.07
56894;BME280;43392;50.078;13.704;2023-05-14T10:12:16;96973.84;;;17.25;54.61
56894;BME280;43392;50.078;13.704;2023-05-14T10:14:49;96982.31;;;17.41;55.66
56894;BME280;43392;50.078;13.704;2023-05-14T10:17:18;96970.50;;;17.37;57.02
56894;BME280;43392;50.078;13.704;2023-05-14T10:19:49;96972.00;;;17.60;57.52
56894;BME280;43392;50.078;13.704;2023-05-14T10:22:21;96968.94;;;17.87;56.49
56894;BME280;43392;50.078;13.704;2023-05-14T10:24:49;96971.75;;;18.08;55.72
56894;BME280;43392;50.078;13.704;2023-05-14T10:27:18;96972.63;;;18.37;54.80
56894;BME280;43392;50.078;13.704;2023-05-14T10:29:50;96973.44;;;18.46;53.83
56894;BME280;43392;50.078;13.704;2023-05-14T10:32:19;96965.75;;;18.48;53.62
56894;BME280;43392;50.078;13.704;2023-05-14T10:34:47;96966.09;;;18.47;52.80
56894;BME280;43392;50.078;13.704;2023-05-14T10:37:14;96975.69;;;18.27;53.78
56894;BME280;43392;50.078;13.704;2023-05-14T10:39:46;96959.44;;;18.19;54.34
56894;BME280;43392;50.078;13.704;2023-05-14T10:42:16;96962.41;;;18.34;53.81
56894;BME280;43392;50.078;13.704;2023-05-14T10:44:55;96958.41;;;18.40;53.90
56894;BME280;43392;50.078;13.704;2023-05-14T10:47:23;96957.94;;;18.38;54.23
56894;BME280;43392;50.078;13.704;2023-05-14T10:49:52;96959.69;;;18.43;54.30
56894;BME280;43392;50.078;13.704;2023-05-14T10:52:20;96957.03;;;18.72;53.06
56894;BME280;43392;50.078;13.704;2023-05-14T10:54:51;96961.47;;;18.47;52.54
56894;BME280;43392;50.078;13.704;2023-05-14T10:57:19;96956.13;;;18.05;52.65
56894;BME280;43392;50.078;13.704;2023-05-14T10:59:51;96957.75;;;17.88;54.72
56894;BME280;43392;50.078;13.704;2023-05-14T11:02:22;96946.41;;;17.95;55.38
56894;BME280;43392;50.078;13.704;2023-05-14T11:04:57;96949.53;;;18.14;54.89
56894;BME280;43392;50.078;13.704;2023-05-14T11:07:28;96942.91;;;18.49;54.38
56894;BME280;43392;50.078;13.704;2023-05-14T11:09:57;96947.47;;;18.95;52.46
56894;BME280;43392;50.078;13.704;2023-05-14T11:12:25;96936.75;;;19.19;51.95
56894;BME280;43392;50.078;13.704;2023-05-14T11:14:52;96931.84;;;19.34;51.90
56894;BME280;43392;50.078;13.704;2023-05-14T11:17:18;96935.41;;;19.26;50.46
56894;BME280;43392;50.078;13.704;2023-05-14T11:19:46;96933.59;;;18.88;50.30
56894;BME280;43392;50.078;13.704;2023-05-14T11:22:13;96938.88;;;18.55;50.73
56894;BME280;43392;50.078;13.704;2023-05-14T11:24:40;96936.41;;;18.33;50.25
56894;BME280;43392;50.078;13.704;2023-05-14T11:27:07;96927.00;;;18.22;50.73
56894;BME280;43392;50.078;13.704;2023-05-14T11:29:34;96924.19;;;18.10;51.31
56894;BME280;43392;50.078;13.704;2023-05-14T11:32:01;96931.53;;;18.10;51.31
56894;BME280;43392;50.078;13.704;2023-05-14T11:34:28;96922.09;;;18.07;52.27
56894;BME280;43392;50.078;13.704;2023-05-14T11:36:56;96923.66;;;18.17;52.04
56894;BME280;43392;50.078;13.704;2023-05-14T11:39:22;96927.94;;;18.35;51.88
56894;BME280;43392;50.078;13.704;2023-05-14T11:41:49;96925.84;;;18.40;52.52
56894;BME280;43392;50.078;13.704;2023-05-14T11:44:16;96920.88;;;18.42;51.60
56894;BME280;43392;50.078;13.704;2023-05-14T11:46:53;96928.72;;;18.35;51.51
56894;BME280;43392;50.078;13.704;2023-05-14T11:49:20;96923.78;;;18.29;51.08
56894;BME280;43392;50.078;13.704;2023-05-14T11:51:47;96929.56;;;18.27;50.17
56894;BME280;43392;50.078;13.704;2023-05-14T11:54:15;96923.66;;;18.25;50.52
56894;BME280;43392;50.078;13.704;2023-05-14T11:56:41;96923.38;;;18.18;50.94
56894;BME280;43392;50.078;13.704;2023-05-14T11:59:09;96926.91;;;18.10;51.56
56894;BME280;43392;50.078;13.704;2023-05-14T12:01:36;96925.50;;;17.96;51.58
56894;BME280;43392;50.078;13.704;2023-05-14T12:04:03;96926.50;;;17.74;52.48
56894;BME280;43392;50.078;13.704;2023-05-14T12:06:30;96924.44;;;17.54;52.32
56894;BME280;43392;50.078;13.704;2023-05-14T12:08:57;96925.22;;;17.37;52.99
56894;BME280;43392;50.078;13.704;2023-05-14T12:11:29;96919.50;;;17.21;53.68
56894;BME280;43392;50.078;13.704;2023-05-14T12:13:56;96917.41;;;17.01;54.47
56894;BME280;43392;50.078;13.704;2023-05-14T12:16:29;96919.13;;;16.80;55.35
56894;BME280;43392;50.078;13.704;2023-05-14T12:18:58;96926.25;;;16.59;55.48
56894;BME280;43392;50.078;13.704;2023-05-14T12:21:26;96923.75;;;16.40;56.09
56894;BME280;43392;50.078;13.704;2023-05-14T12:23:56;96925.16;;;16.29;56.57
56894;BME280;43392;50.078;13.704;2023-05-14T12:26:24;96917.19;;;16.24;56.74
56894;BME280;43392;50.078;13.704;2023-05-14T12:28:58;96906.97;;;16.21;57.03
56894;BME280;43392;50.078;13.704;2023-05-14T12:31:28;96910.63;;;16.25;57.17
56894;BME280;43392;50.078;13.704;2023-05-14T12:33:56;96914.50;;;16.33;57.07
56894;BME280;43392;50.078;13.704;2023-05-14T12:36:23;96902.44;;;16.39;57.03
56894;BME280;43392;50.078;13.704;2023-05-14T12:38:55;96907.69;;;16.44;56.41
56894;BME280;43392;50.078;13.704;2023-05-14T12:41:22;96905.47;;;16.46;56.22
56894;BME280;43392;50.078;13.704;2023-05-14T12:43:48;96906.44;;;16.50;57.25
56894;BME280;43392;50.078;13.704;2023-05-14T12:46:16;96908.03;;;16.51;57.72
56894;BME280;43392;50.078;13.704;2023-05-14T12:48:43;96905.81;;;16.44;57.69
56894;BME280;43392;50.078;13.704;2023-05-14T12:51:10;96896.91;;;16.52;57.96
56894;BME280;43392;50.078;13.704;2023-05-14T12:53:37;96897.41;;;16.54;57.69
56894;BME280;43392;50.078;13.704;2023-05-14T12:56:04;96891.34;;;16.57;57.42